MAS8003 WMKK-OEMA
Flight info
| Callsign | MAS8003 |
|---|---|
| Flight time | N/A |
| Altitude | 35000 |
| Route | PUGER1A PUGER P574 MIXAM P899 ROVOS G462 UKUVO Q563 IMGUX P699 ORMID DCT DASLO P699 SOGAT A453 RIKET P699 KUKDA A453 ASTAD P699 BHR DCT NARMI N112 ULDEG DCT IVONU Y216 BOTIK V167 ITSEP |
| Aircraft | A388/J-SADE2E3FGHIJ3J4J5M1RWXY/LB1D1 |
Departure
| Time | N/A |
|---|---|
| Airport | Kuala Lumpur International Airport (WMKK) |
Arrival
| Time | 2026-05-09 00:02 |
|---|---|
| Airport | Prince Mohammad Bin Abdulaziz Airport (OEMA) |
| Time | Latitude | Longitude | Altitude | Speed | Heading |
|---|---|---|---|---|---|
| 2026-05-08 23:55 | 24.19282 | 39.80498 | 6724 ft | 240 kts | 284° |
| 2026-05-08 23:55 | 24.20160 | 39.78977 | 6591 ft | 242 kts | 321° |
| 2026-05-08 23:55 | 24.21654 | 39.78112 | 6465 ft | 245 kts | 341° |
| 2026-05-08 23:55 | 24.23297 | 39.77631 | 6316 ft | 244 kts | 347° |
| 2026-05-08 23:56 | 24.24937 | 39.77282 | 6182 ft | 244 kts | 349° |
| 2026-05-08 23:56 | 24.26593 | 39.76930 | 6047 ft | 241 kts | 349° |
| 2026-05-08 23:56 | 24.28226 | 39.76583 | 5994 ft | 235 kts | 349° |
| 2026-05-08 23:56 | 24.29766 | 39.76256 | 5965 ft | 213 kts | 349° |
| 2026-05-08 23:57 | 24.31136 | 39.75965 | 5718 ft | 193 kts | 349° |
| 2026-05-08 23:57 | 24.32455 | 39.75685 | 5223 ft | 193 kts | 349° |
| 2026-05-08 23:57 | 24.33768 | 39.75407 | 5038 ft | 193 kts | 349° |
| 2026-05-08 23:57 | 24.35060 | 39.75132 | 4964 ft | 183 kts | 349° |
| 2026-05-08 23:58 | 24.36268 | 39.74875 | 4806 ft | 173 kts | 350° |
| 2026-05-08 23:58 | 24.37449 | 39.74625 | 4482 ft | 171 kts | 350° |
| 2026-05-08 23:58 | 24.38612 | 39.74377 | 4401 ft | 170 kts | 350° |
| 2026-05-08 23:58 | 24.39781 | 39.74129 | 4397 ft | 172 kts | 350° |
| 2026-05-08 23:59 | 24.40957 | 39.73880 | 4396 ft | 173 kts | 350° |
| 2026-05-08 23:59 | 24.42131 | 39.73628 | 4368 ft | 169 kts | 350° |
| 2026-05-08 23:59 | 24.43270 | 39.73387 | 4151 ft | 165 kts | 351° |
| 2026-05-08 23:59 | 24.44389 | 39.73149 | 3938 ft | 163 kts | 351° |
| 2026-05-09 00:00 | 24.45501 | 39.72911 | 3741 ft | 162 kts | 351° |
| 2026-05-09 00:00 | 24.46610 | 39.72677 | 3534 ft | 162 kts | 351° |
| 2026-05-09 00:00 | 24.47724 | 39.72439 | 3332 ft | 163 kts | 351° |
| 2026-05-09 00:00 | 24.48817 | 39.72207 | 3123 ft | 161 kts | 351° |
| 2026-05-09 00:01 | 24.49907 | 39.71974 | 2898 ft | 156 kts | 350° |
| 2026-05-09 00:01 | 24.50959 | 39.71733 | 2677 ft | 154 kts | 349° |
| 2026-05-09 00:01 | 24.52006 | 39.71537 | 2506 ft | 153 kts | 350° |
| 2026-05-09 00:01 | 24.53047 | 39.71293 | 2326 ft | 153 kts | 352° |
| 2026-05-09 00:02 | 24.54104 | 39.71050 | 2128 ft | 156 kts | 356° |
| 2026-05-09 00:02 | 24.55015 | 39.70885 | 2117 ft | 109 kts | 351° |
| 2026-05-09 00:02 | 24.55644 | 39.70757 | 2114 ft | 76 kts | 349° |
| 2026-05-09 00:02 | 24.55959 | 39.70691 | 2117 ft | 38 kts | 349° |
| 2026-05-09 00:03 | 24.56191 | 39.70724 | 2119 ft | 18 kts | 22° |
| 2026-05-09 00:03 | 24.56275 | 39.70770 | 2117 ft | 21 kts | 44° |
| 2026-05-09 00:03 | 24.56287 | 39.70811 | 2113 ft | 2 kts | 123° |
| 2026-05-09 00:03 | 24.56253 | 39.70828 | 2112 ft | 10 kts | 170° |
| 2026-05-09 00:04 | 24.56155 | 39.70842 | 2112 ft | 19 kts | 172° |
| 2026-05-09 00:04 | 24.56041 | 39.70863 | 2112 ft | 5 kts | 160° |
| 2026-05-09 00:04 | 24.56006 | 39.70906 | 2111 ft | 13 kts | 102° |
| 2026-05-09 00:04 | 24.56017 | 39.71025 | 2110 ft | 9 kts | 65° |
| 2026-05-09 00:05 | 24.56091 | 39.71050 | 2110 ft | 10 kts | 351° |
| 2026-05-09 00:05 | 24.56186 | 39.71029 | 2110 ft | 11 kts | 348° |
| 2026-05-09 00:05 | 24.56238 | 39.71039 | 2110 ft | 8 kts | 71° |
| 2026-05-09 00:05 | 24.56247 | 39.71090 | 2110 ft | 2 kts | 77° |
| 2026-05-09 00:06 | 24.56250 | 39.71104 | 2110 ft | 1 kts | 78° |
| 2026-05-09 00:06 | 24.56250 | 39.71106 | 2110 ft | 2 kts | 78° |
| 2026-05-09 00:06 | 24.56253 | 39.71121 | 2110 ft | 2 kts | 77° |
| 2026-05-09 00:07 | 24.56254 | 39.71125 | 2110 ft | 0 kts | 77° |